Aviation Digital Data Service (ADDS)

Output produced by METARs form (0412 UTC 25 October 2014)
found at http://www.aviationweather.gov/adds/metars/
 
KLGA 250401Z 2504/2524 32007KT P6SM SCT250 
     FM251500 28009KT P6SM SKC 
     FM251800 25011KT P6SM SCT050